sensor_id;sensor_type;location;lat;lon;timestamp;P1;durP1;ratioP1;P2;durP2;ratioP2
77507;SDS011;66618;42.666;23.360;2023-03-21T00:00:19;11.18;;;7.07;;
77507;SDS011;66618;42.666;23.360;2023-03-21T00:02:45;14.15;;;7.10;;
77507;SDS011;66618;42.666;23.360;2023-03-21T00:05:10;15.80;;;9.10;;
77507;SDS011;66618;42.666;23.360;2023-03-21T00:07:35;15.38;;;8.00;;
77507;SDS011;66618;42.666;23.360;2023-03-21T00:10:01;10.18;;;6.70;;
77507;SDS011;66618;42.666;23.360;2023-03-21T00:12:26;13.13;;;7.40;;
77507;SDS011;66618;42.666;23.360;2023-03-21T00:14:56;18.27;;;7.70;;
77507;SDS011;66618;42.666;23.360;2023-03-21T00:17:30;13.43;;;7.63;;
77507;SDS011;66618;42.666;23.360;2023-03-21T00:19:56;14.35;;;8.00;;
77507;SDS011;66618;42.666;23.360;2023-03-21T00:22:22;13.98;;;7.47;;
77507;SDS011;66618;42.666;23.360;2023-03-21T00:24:48;21.60;;;7.88;;
77507;SDS011;66618;42.666;23.360;2023-03-21T00:27:16;16.23;;;8.13;;
77507;SDS011;66618;42.666;23.360;2023-03-21T00:29:43;14.60;;;7.97;;
77507;SDS011;66618;42.666;23.360;2023-03-21T00:32:09;13.77;;;7.72;;
77507;SDS011;66618;42.666;23.360;2023-03-21T00:34:34;16.02;;;8.60;;
77507;SDS011;66618;42.666;23.360;2023-03-21T00:37:02;17.25;;;8.32;;
77507;SDS011;66618;42.666;23.360;2023-03-21T00:39:27;18.65;;;9.25;;
77507;SDS011;66618;42.666;23.360;2023-03-21T00:41:53;18.33;;;10.55;;
77507;SDS011;66618;42.666;23.360;2023-03-21T00:44:18;20.35;;;11.60;;
77507;SDS011;66618;42.666;23.360;2023-03-21T00:46:45;28.35;;;12.73;;
77507;SDS011;66618;42.666;23.360;2023-03-21T00:49:10;22.73;;;12.70;;
77507;SDS011;66618;42.666;23.360;2023-03-21T00:51:35;19.33;;;11.23;;
77507;SDS011;66618;42.666;23.360;2023-03-21T00:54:01;24.65;;;11.60;;
77507;SDS011;66618;42.666;23.360;2023-03-21T00:56:29;21.95;;;12.15;;
77507;SDS011;66618;42.666;23.360;2023-03-21T00:58:55;24.40;;;11.93;;
77507;SDS011;66618;42.666;23.360;2023-03-21T01:01:20;19.27;;;11.10;;
77507;SDS011;66618;42.666;23.360;2023-03-21T01:03:46;24.05;;;12.45;;
77507;SDS011;66618;42.666;23.360;2023-03-21T01:06:27;23.38;;;12.60;;
77507;SDS011;66618;42.666;23.360;2023-03-21T01:08:53;27.30;;;12.82;;
77507;SDS011;66618;42.666;23.360;2023-03-21T01:11:22;28.48;;;13.00;;
77507;SDS011;66618;42.666;23.360;2023-03-21T01:13:50;24.63;;;13.38;;
77507;SDS011;66618;42.666;23.360;2023-03-21T01:16:15;21.90;;;12.07;;
77507;SDS011;66618;42.666;23.360;2023-03-21T01:18:41;21.08;;;12.18;;
77507;SDS011;66618;42.666;23.360;2023-03-21T01:21:08;22.00;;;11.27;;
77507;SDS011;66618;42.666;23.360;2023-03-21T01:23:37;20.90;;;11.77;;
77507;SDS011;66618;42.666;23.360;2023-03-21T01:26:04;23.15;;;12.18;;
77507;SDS011;66618;42.666;23.360;2023-03-21T01:28:31;22.20;;;12.48;;
77507;SDS011;66618;42.666;23.360;2023-03-21T01:30:58;22.25;;;12.38;;
77507;SDS011;66618;42.666;23.360;2023-03-21T01:33:25;23.90;;;12.88;;
77507;SDS011;66618;42.666;23.360;2023-03-21T01:35:50;25.88;;;12.68;;
77507;SDS011;66618;42.666;23.360;2023-03-21T01:38:15;23.05;;;12.60;;
77507;SDS011;66618;42.666;23.360;2023-03-21T01:40:42;20.38;;;11.80;;
77507;SDS011;66618;42.666;23.360;2023-03-21T01:48:35;23.75;;;12.13;;
77507;SDS011;66618;42.666;23.360;2023-03-21T01:51:01;20.85;;;10.90;;
77507;SDS011;66618;42.666;23.360;2023-03-21T01:53:27;23.65;;;12.30;;
77507;SDS011;66618;42.666;23.360;2023-03-21T01:55:56;22.45;;;11.98;;
77507;SDS011;66618;42.666;23.360;2023-03-21T01:58:22;21.70;;;11.52;;
77507;SDS011;66618;42.666;23.360;2023-03-21T02:00:48;21.70;;;11.70;;
77507;SDS011;66618;42.666;23.360;2023-03-21T02:03:14;19.98;;;11.75;;
77507;SDS011;66618;42.666;23.360;2023-03-21T02:08:15;21.88;;;11.45;;
77507;SDS011;66618;42.666;23.360;2023-03-21T02:10:41;30.13;;;11.52;;
77507;SDS011;66618;42.666;23.360;2023-03-21T02:13:07;22.92;;;10.90;;
77507;SDS011;66618;42.666;23.360;2023-03-21T02:15:36;20.52;;;11.73;;
77507;SDS011;66618;42.666;23.360;2023-03-21T02:18:06;19.85;;;11.52;;
77507;SDS011;66618;42.666;23.360;2023-03-21T02:29:08;19.15;;;11.07;;
77507;SDS011;66618;42.666;23.360;2023-03-21T02:37:10;19.33;;;11.30;;
77507;SDS011;66618;42.666;23.360;2023-03-21T02:39:49;22.58;;;11.27;;
77507;SDS011;66618;42.666;23.360;2023-03-21T02:45:05;18.17;;;10.52;;
77507;SDS011;66618;42.666;23.360;2023-03-21T02:53:01;22.10;;;10.90;;
77507;SDS011;66618;42.666;23.360;2023-03-21T02:55:28;18.50;;;11.10;;
77507;SDS011;66618;42.666;23.360;2023-03-21T02:57:56;18.17;;;10.68;;
77507;SDS011;66618;42.666;23.360;2023-03-21T03:00:23;21.23;;;10.68;;
77507;SDS011;66618;42.666;23.360;2023-03-21T03:02:51;20.35;;;10.57;;
77507;SDS011;66618;42.666;23.360;2023-03-21T03:05:21;17.40;;;10.40;;
77507;SDS011;66618;42.666;23.360;2023-03-21T03:18:49;21.42;;;11.15;;
77507;SDS011;66618;42.666;23.360;2023-03-21T03:21:19;18.52;;;11.02;;
77507;SDS011;66618;42.666;23.360;2023-03-21T03:26:23;20.73;;;10.65;;
77507;SDS011;66618;42.666;23.360;2023-03-21T03:28:52;21.60;;;11.80;;
77507;SDS011;66618;42.666;23.360;2023-03-21T03:31:24;23.45;;;11.70;;
77507;SDS011;66618;42.666;23.360;2023-03-21T03:33:53;20.92;;;11.65;;
77507;SDS011;66618;42.666;23.360;2023-03-21T03:36:21;20.85;;;11.07;;
77507;SDS011;66618;42.666;23.360;2023-03-21T03:38:51;22.65;;;11.25;;
77507;SDS011;66618;42.666;23.360;2023-03-21T03:41:23;18.95;;;10.80;;
77507;SDS011;66618;42.666;23.360;2023-03-21T03:43:51;23.00;;;11.13;;
77507;SDS011;66618;42.666;23.360;2023-03-21T03:49:16;20.73;;;11.20;;
77507;SDS011;66618;42.666;23.360;2023-03-21T03:54:20;20.48;;;10.25;;
77507;SDS011;66618;42.666;23.360;2023-03-21T03:56:48;18.40;;;10.80;;
77507;SDS011;66618;42.666;23.360;2023-03-21T03:59:15;22.02;;;10.57;;
77507;SDS011;66618;42.666;23.360;2023-03-21T04:01:46;17.75;;;10.30;;
77507;SDS011;66618;42.666;23.360;2023-03-21T04:04:11;21.60;;;10.85;;
77507;SDS011;66618;42.666;23.360;2023-03-21T04:06:37;18.23;;;10.50;;
77507;SDS011;66618;42.666;23.360;2023-03-21T04:09:02;18.65;;;10.90;;
77507;SDS011;66618;42.666;23.360;2023-03-21T04:11:28;18.17;;;10.70;;
77507;SDS011;66618;42.666;23.360;2023-03-21T04:13:54;20.23;;;10.95;;
77507;SDS011;66618;42.666;23.360;2023-03-21T04:16:19;22.05;;;10.38;;
77507;SDS011;66618;42.666;23.360;2023-03-21T04:18:45;20.90;;;10.77;;
77507;SDS011;66618;42.666;23.360;2023-03-21T04:21:11;20.90;;;11.07;;
77507;SDS011;66618;42.666;23.360;2023-03-21T04:23:37;20.10;;;11.00;;
77507;SDS011;66618;42.666;23.360;2023-03-21T04:26:04;22.88;;;11.48;;
77507;SDS011;66618;42.666;23.360;2023-03-21T04:28:30;20.40;;;11.25;;
77507;SDS011;66618;42.666;23.360;2023-03-21T04:30:56;30.90;;;12.20;;
77507;SDS011;66618;42.666;23.360;2023-03-21T04:33:22;23.30;;;11.80;;
77507;SDS011;66618;42.666;23.360;2023-03-21T04:35:50;21.60;;;10.95;;
77507;SDS011;66618;42.666;23.360;2023-03-21T04:38:20;21.00;;;11.40;;
77507;SDS011;66618;42.666;23.360;2023-03-21T04:40:47;19.25;;;10.68;;
77507;SDS011;66618;42.666;23.360;2023-03-21T04:43:12;22.75;;;11.85;;
77507;SDS011;66618;42.666;23.360;2023-03-21T04:45:37;24.50;;;12.35;;
77507;SDS011;66618;42.666;23.360;2023-03-21T04:48:03;22.05;;;11.75;;
77507;SDS011;66618;42.666;23.360;2023-03-21T04:50:28;26.45;;;11.88;;
77507;SDS011;66618;42.666;23.360;2023-03-21T04:52:54;24.42;;;12.32;;
77507;SDS011;66618;42.666;23.360;2023-03-21T04:55:19;24.02;;;12.00;;
77507;SDS011;66618;42.666;23.360;2023-03-21T04:57:45;22.70;;;12.40;;
77507;SDS011;66618;42.666;23.360;2023-03-21T05:00:11;28.25;;;12.63;;
77507;SDS011;66618;42.666;23.360;2023-03-21T05:02:40;22.40;;;12.27;;
77507;SDS011;66618;42.666;23.360;2023-03-21T05:05:05;20.95;;;12.25;;
77507;SDS011;66618;42.666;23.360;2023-03-21T05:07:35;25.42;;;12.60;;
77507;SDS011;66618;42.666;23.360;2023-03-21T05:10:01;28.88;;;12.20;;
77507;SDS011;66618;42.666;23.360;2023-03-21T05:12:27;25.40;;;11.75;;
77507;SDS011;66618;42.666;23.360;2023-03-21T05:14:53;24.67;;;12.35;;
77507;SDS011;66618;42.666;23.360;2023-03-21T05:17:18;24.83;;;11.30;;
77507;SDS011;66618;42.666;23.360;2023-03-21T05:19:47;19.48;;;10.95;;
77507;SDS011;66618;42.666;23.360;2023-03-21T05:22:15;22.17;;;11.95;;
77507;SDS011;66618;42.666;23.360;2023-03-21T05:24:43;18.73;;;10.95;;
77507;SDS011;66618;42.666;23.360;2023-03-21T05:27:14;19.13;;;10.85;;
77507;SDS011;66618;42.666;23.360;2023-03-21T05:30:03;31.20;;;11.63;;
77507;SDS011;66618;42.666;23.360;2023-03-21T05:32:31;21.05;;;10.52;;
77507;SDS011;66618;42.666;23.360;2023-03-21T05:34:57;27.90;;;11.73;;
77507;SDS011;66618;42.666;23.360;2023-03-21T05:37:22;22.67;;;11.45;;
77507;SDS011;66618;42.666;23.360;2023-03-21T05:39:48;27.52;;;11.00;;
77507;SDS011;66618;42.666;23.360;2023-03-21T05:42:13;25.17;;;11.55;;
77507;SDS011;66618;42.666;23.360;2023-03-21T05:44:40;23.67;;;12.20;;
77507;SDS011;66618;42.666;23.360;2023-03-21T05:47:05;21.20;;;12.07;;
77507;SDS011;66618;42.666;23.360;2023-03-21T05:49:31;20.90;;;11.63;;
77507;SDS011;66618;42.666;23.360;2023-03-21T05:51:56;26.83;;;12.07;;
77507;SDS011;66618;42.666;23.360;2023-03-21T05:54:22;27.83;;;12.38;;
77507;SDS011;66618;42.666;23.360;2023-03-21T05:56:48;29.05;;;11.45;;
77507;SDS011;66618;42.666;23.360;2023-03-21T05:59:13;24.70;;;12.02;;
77507;SDS011;66618;42.666;23.360;2023-03-21T06:01:38;20.42;;;12.20;;
77507;SDS011;66618;42.666;23.360;2023-03-21T06:04:04;37.67;;;13.90;;
77507;SDS011;66618;42.666;23.360;2023-03-21T06:06:30;30.73;;;13.35;;
77507;SDS011;66618;42.666;23.360;2023-03-21T06:08:55;27.27;;;12.30;;
77507;SDS011;66618;42.666;23.360;2023-03-21T06:11:31;31.55;;;12.32;;
77507;SDS011;66618;42.666;23.360;2023-03-21T06:13:58;29.02;;;11.32;;
77507;SDS011;66618;42.666;23.360;2023-03-21T06:16:24;21.38;;;12.05;;
77507;SDS011;66618;42.666;23.360;2023-03-21T06:18:49;24.70;;;12.82;;
77507;SDS011;66618;42.666;23.360;2023-03-21T06:21:15;23.40;;;12.65;;
77507;SDS011;66618;42.666;23.360;2023-03-21T06:23:40;24.88;;;12.05;;
77507;SDS011;66618;42.666;23.360;2023-03-21T06:26:06;22.95;;;12.00;;
77507;SDS011;66618;42.666;23.360;2023-03-21T06:28:31;24.98;;;12.15;;
77507;SDS011;66618;42.666;23.360;2023-03-21T06:30:57;24.35;;;11.93;;
77507;SDS011;66618;42.666;23.360;2023-03-21T06:33:22;25.67;;;12.57;;
77507;SDS011;66618;42.666;23.360;2023-03-21T06:35:54;24.60;;;11.85;;
77507;SDS011;66618;42.666;23.360;2023-03-21T06:38:21;22.23;;;11.40;;
77507;SDS011;66618;42.666;23.360;2023-03-21T06:40:47;21.27;;;10.25;;
77507;SDS011;66618;42.666;23.360;2023-03-21T06:43:13;26.00;;;11.80;;
77507;SDS011;66618;42.666;23.360;2023-03-21T06:45:40;30.65;;;12.13;;
77507;SDS011;66618;42.666;23.360;2023-03-21T06:48:05;21.13;;;10.82;;
77507;SDS011;66618;42.666;23.360;2023-03-21T06:50:31;22.30;;;11.10;;
77507;SDS011;66618;42.666;23.360;2023-03-21T06:52:56;22.50;;;11.07;;
77507;SDS011;66618;42.666;23.360;2023-03-21T06:55:23;25.80;;;10.68;;
77507;SDS011;66618;42.666;23.360;2023-03-21T06:57:51;20.90;;;11.27;;
77507;SDS011;66618;42.666;23.360;2023-03-21T07:00:20;19.30;;;10.68;;
77507;SDS011;66618;42.666;23.360;2023-03-21T07:02:46;21.25;;;10.88;;
77507;SDS011;66618;42.666;23.360;2023-03-21T07:05:12;22.73;;;12.40;;
77507;SDS011;66618;42.666;23.360;2023-03-21T07:07:37;24.83;;;12.00;;
77507;SDS011;66618;42.666;23.360;2023-03-21T07:10:04;29.02;;;13.40;;
77507;SDS011;66618;42.666;23.360;2023-03-21T07:12:29;30.77;;;15.13;;
77507;SDS011;66618;42.666;23.360;2023-03-21T07:14:58;24.60;;;12.27;;
77507;SDS011;66618;42.666;23.360;2023-03-21T07:17:26;36.90;;;19.83;;
77507;SDS011;66618;42.666;23.360;2023-03-21T07:19:52;38.47;;;21.42;;
77507;SDS011;66618;42.666;23.360;2023-03-21T07:22:17;40.92;;;21.55;;
77507;SDS011;66618;42.666;23.360;2023-03-21T07:24:43;37.08;;;20.98;;
77507;SDS011;66618;42.666;23.360;2023-03-21T07:27:12;41.97;;;21.73;;
77507;SDS011;66618;42.666;23.360;2023-03-21T07:29:38;37.50;;;22.55;;
77507;SDS011;66618;42.666;23.360;2023-03-21T07:32:03;42.72;;;22.30;;
77507;SDS011;66618;42.666;23.360;2023-03-21T07:34:28;34.35;;;19.05;;
77507;SDS011;66618;42.666;23.360;2023-03-21T07:36:57;41.38;;;23.20;;
77507;SDS011;66618;42.666;23.360;2023-03-21T07:39:22;42.60;;;23.13;;
77507;SDS011;66618;42.666;23.360;2023-03-21T07:41:48;38.75;;;22.05;;
77507;SDS011;66618;42.666;23.360;2023-03-21T07:44:13;45.63;;;23.63;;
77507;SDS011;66618;42.666;23.360;2023-03-21T07:46:39;38.60;;;21.50;;
77507;SDS011;66618;42.666;23.360;2023-03-21T07:49:05;37.15;;;21.02;;
77507;SDS011;66618;42.666;23.360;2023-03-21T07:51:30;40.58;;;21.27;;
77507;SDS011;66618;42.666;23.360;2023-03-21T07:53:56;36.88;;;20.50;;
77507;SDS011;66618;42.666;23.360;2023-03-21T07:56:21;37.78;;;19.80;;
77507;SDS011;66618;42.666;23.360;2023-03-21T07:58:46;39.38;;;20.63;;
77507;SDS011;66618;42.666;23.360;2023-03-21T08:01:12;34.97;;;19.80;;
77507;SDS011;66618;42.666;23.360;2023-03-21T08:03:37;39.70;;;20.40;;
77507;SDS011;66618;42.666;23.360;2023-03-21T08:06:03;36.47;;;19.17;;
77507;SDS011;66618;42.666;23.360;2023-03-21T08:08:29;36.97;;;18.90;;
77507;SDS011;66618;42.666;23.360;2023-03-21T08:10:54;38.92;;;19.83;;
77507;SDS011;66618;42.666;23.360;2023-03-21T08:13:20;37.78;;;19.60;;
77507;SDS011;66618;42.666;23.360;2023-03-21T08:15:45;39.72;;;20.45;;
77507;SDS011;66618;42.666;23.360;2023-03-21T08:18:11;38.92;;;18.73;;
77507;SDS011;66618;42.666;23.360;2023-03-21T08:20:36;33.60;;;18.30;;
77507;SDS011;66618;42.666;23.360;2023-03-21T08:23:02;35.92;;;17.73;;
77507;SDS011;66618;42.666;23.360;2023-03-21T08:25:27;32.60;;;17.02;;
77507;SDS011;66618;42.666;23.360;2023-03-21T08:27:53;35.83;;;17.77;;
77507;SDS011;66618;42.666;23.360;2023-03-21T08:30:19;33.97;;;16.70;;
77507;SDS011;66618;42.666;23.360;2023-03-21T08:32:46;33.80;;;17.67;;
77507;SDS011;66618;42.666;23.360;2023-03-21T08:35:13;39.92;;;18.35;;
77507;SDS011;66618;42.666;23.360;2023-03-21T08:37:40;29.25;;;17.90;;
77507;SDS011;66618;42.666;23.360;2023-03-21T08:40:07;28.90;;;17.77;;
77507;SDS011;66618;42.666;23.360;2023-03-21T08:42:36;29.73;;;16.02;;
77507;SDS011;66618;42.666;23.360;2023-03-21T08:45:02;19.63;;;11.68;;
77507;SDS011;66618;42.666;23.360;2023-03-21T08:47:29;19.08;;;12.13;;
77507;SDS011;66618;42.666;23.360;2023-03-21T08:49:54;18.02;;;10.95;;
77507;SDS011;66618;42.666;23.360;2023-03-21T08:52:22;18.77;;;11.48;;
77507;SDS011;66618;42.666;23.360;2023-03-21T08:54:48;21.73;;;11.88;;
77507;SDS011;66618;42.666;23.360;2023-03-21T08:57:13;25.15;;;13.23;;
77507;SDS011;66618;42.666;23.360;2023-03-21T08:59:39;21.92;;;13.55;;
77507;SDS011;66618;42.666;23.360;2023-03-21T09:02:04;29.17;;;12.15;;
77507;SDS011;66618;42.666;23.360;2023-03-21T09:04:31;20.13;;;11.68;;
77507;SDS011;66618;42.666;23.360;2023-03-21T09:06:56;20.67;;;12.07;;
77507;SDS011;66618;42.666;23.360;2023-03-21T09:09:25;17.80;;;10.85;;
77507;SDS011;66618;42.666;23.360;2023-03-21T09:11:51;17.95;;;10.70;;
77507;SDS011;66618;42.666;23.360;2023-03-21T09:14:17;27.70;;;12.60;;
77507;SDS011;66618;42.666;23.360;2023-03-21T09:16:42;22.15;;;12.70;;
77507;SDS011;66618;42.666;23.360;2023-03-21T09:19:08;22.02;;;12.45;;
77507;SDS011;66618;42.666;23.360;2023-03-21T09:21:33;22.73;;;11.38;;
77507;SDS011;66618;42.666;23.360;2023-03-21T09:23:59;18.80;;;11.43;;
77507;SDS011;66618;42.666;23.360;2023-03-21T09:26:26;23.30;;;13.30;;
77507;SDS011;66618;42.666;23.360;2023-03-21T09:28:52;24.27;;;12.45;;
77507;SDS011;66618;42.666;23.360;2023-03-21T09:31:22;25.13;;;14.07;;
77507;SDS011;66618;42.666;23.360;2023-03-21T09:33:49;24.95;;;13.20;;
77507;SDS011;66618;42.666;23.360;2023-03-21T09:36:15;24.73;;;13.60;;
77507;SDS011;66618;42.666;23.360;2023-03-21T09:38:43;21.55;;;12.65;;
77507;SDS011;66618;42.666;23.360;2023-03-21T09:51:41;20.30;;;12.20;;
77507;SDS011;66618;42.666;23.360;2023-03-21T09:54:32;22.88;;;12.27;;
77507;SDS011;66618;42.666;23.360;2023-03-21T09:57:45;19.90;;;12.80;;
77507;SDS011;66618;42.666;23.360;2023-03-21T09:59:51;18.88;;;11.60;;
77507;SDS011;66618;42.666;23.360;2023-03-21T10:05:00;22.73;;;12.13;;
77507;SDS011;66618;42.666;23.360;2023-03-21T10:07:33;23.40;;;12.45;;
77507;SDS011;66618;42.666;23.360;2023-03-21T10:12:36;20.15;;;11.55;;
77507;SDS011;66618;42.666;23.360;2023-03-21T10:15:02;21.30;;;12.88;;
77507;SDS011;66618;42.666;23.360;2023-03-21T10:17:35;23.35;;;12.77;;
77507;SDS011;66618;42.666;23.360;2023-03-21T10:20:14;21.45;;;12.50;;
77507;SDS011;66618;42.666;23.360;2023-03-21T10:22:43;25.05;;;13.55;;
77507;SDS011;66618;42.666;23.360;2023-03-21T10:25:12;23.85;;;13.05;;
77507;SDS011;66618;42.666;23.360;2023-03-21T10:27:40;23.83;;;12.57;;
77507;SDS011;66618;42.666;23.360;2023-03-21T10:30:05;26.25;;;13.40;;
77507;SDS011;66618;42.666;23.360;2023-03-21T10:32:34;20.98;;;12.82;;
77507;SDS011;66618;42.666;23.360;2023-03-21T10:34:59;25.20;;;12.25;;
77507;SDS011;66618;42.666;23.360;2023-03-21T10:37:27;24.88;;;13.82;;
77507;SDS011;66618;42.666;23.360;2023-03-21T10:39:53;21.50;;;11.75;;
77507;SDS011;66618;42.666;23.360;2023-03-21T10:42:20;20.27;;;11.70;;
77507;SDS011;66618;42.666;23.360;2023-03-21T10:44:51;21.88;;;11.45;;
77507;SDS011;66618;42.666;23.360;2023-03-21T10:47:19;13.55;;;7.82;;
77507;SDS011;66618;42.666;23.360;2023-03-21T10:49:46;20.17;;;10.77;;
77507;SDS011;66618;42.666;23.360;2023-03-21T10:52:12;16.25;;;9.75;;
77507;SDS011;66618;42.666;23.360;2023-03-21T10:54:42;17.75;;;10.70;;
77507;SDS011;66618;42.666;23.360;2023-03-21T10:57:13;17.27;;;10.25;;
77507;SDS011;66618;42.666;23.360;2023-03-21T10:59:44;17.75;;;9.60;;
77507;SDS011;66618;42.666;23.360;2023-03-21T11:02:24;16.25;;;10.77;;
77507;SDS011;66618;42.666;23.360;2023-03-21T11:04:51;16.90;;;9.70;;
77507;SDS011;66618;42.666;23.360;2023-03-21T11:07:18;15.55;;;8.95;;
77507;SDS011;66618;42.666;23.360;2023-03-21T11:09:54;11.27;;;8.50;;
77507;SDS011;66618;42.666;23.360;2023-03-21T11:12:37;14.80;;;8.07;;
77507;SDS011;66618;42.666;23.360;2023-03-21T11:18:17;10.35;;;5.78;;
77507;SDS011;66618;42.666;23.360;2023-03-21T11:20:49;10.32;;;6.55;;
77507;SDS011;66618;42.666;23.360;2023-03-21T11:23:19;9.77;;;6.32;;
77507;SDS011;66618;42.666;23.360;2023-03-21T11:25:46;11.18;;;6.57;;
77507;SDS011;66618;42.666;23.360;2023-03-21T11:28:14;10.77;;;6.65;;
77507;SDS011;66618;42.666;23.360;2023-03-21T11:30:48;10.55;;;6.00;;
77507;SDS011;66618;42.666;23.360;2023-03-21T11:33:24;10.38;;;6.00;;
77507;SDS011;66618;42.666;23.360;2023-03-21T11:36:02;12.48;;;6.45;;
77507;SDS011;66618;42.666;23.360;2023-03-21T11:38:35;12.68;;;7.55;;
77507;SDS011;66618;42.666;23.360;2023-03-21T11:41:02;13.55;;;6.82;;
77507;SDS011;66618;42.666;23.360;2023-03-21T11:48:24;7.53;;;4.25;;
77507;SDS011;66618;42.666;23.360;2023-03-21T11:50:51;8.07;;;5.28;;
77507;SDS011;66618;42.666;23.360;2023-03-21T11:53:39;9.32;;;5.00;;
77507;SDS011;66618;42.666;23.360;2023-03-21T11:56:26;7.60;;;5.00;;
77507;SDS011;66618;42.666;23.360;2023-03-21T11:59:09;9.15;;;4.40;;
77507;SDS011;66618;42.666;23.360;2023-03-21T12:05:04;6.70;;;4.80;;
77507;SDS011;66618;42.666;23.360;2023-03-21T12:22:09;5.35;;;4.07;;
77507;SDS011;66618;42.666;23.360;2023-03-21T12:27:26;6.60;;;4.80;;
77507;SDS011;66618;42.666;23.360;2023-03-21T12:45:57;5.97;;;4.15;;
77507;SDS011;66618;42.666;23.360;2023-03-21T12:51:13;6.45;;;4.43;;
77507;SDS011;66618;42.666;23.360;2023-03-21T12:56:22;5.72;;;4.10;;
77507;SDS011;66618;42.666;23.360;2023-03-21T12:59:07;7.65;;;3.97;;
77507;SDS011;66618;42.666;23.360;2023-03-21T13:01:38;7.53;;;4.28;;
77507;SDS011;66618;42.666;23.360;2023-03-21T13:04:20;6.13;;;4.10;;
77507;SDS011;66618;42.666;23.360;2023-03-21T13:06:56;8.63;;;4.15;;
77507;SDS011;66618;42.666;23.360;2023-03-21T13:09:30;6.70;;;4.30;;
77507;SDS011;66618;42.666;23.360;2023-03-21T13:11:58;7.57;;;4.22;;
77507;SDS011;66618;42.666;23.360;2023-03-21T13:14:32;5.90;;;4.43;;
77507;SDS011;66618;42.666;23.360;2023-03-21T13:17:03;7.32;;;4.78;;
77507;SDS011;66618;42.666;23.360;2023-03-21T13:27:35;8.13;;;4.28;;
77507;SDS011;66618;42.666;23.360;2023-03-21T13:32:37;7.05;;;4.18;;
77507;SDS011;66618;42.666;23.360;2023-03-21T13:37:42;4.80;;;3.65;;
77507;SDS011;66618;42.666;23.360;2023-03-21T13:43:54;5.65;;;3.75;;
77507;SDS011;66618;42.666;23.360;2023-03-21T13:59:12;8.60;;;4.60;;
77507;SDS011;66618;42.666;23.360;2023-03-21T14:01:56;8.30;;;4.38;;
77507;SDS011;66618;42.666;23.360;2023-03-21T14:04:41;6.47;;;4.07;;
77507;SDS011;66618;42.666;23.360;2023-03-21T14:07:11;9.23;;;4.80;;
77507;SDS011;66618;42.666;23.360;2023-03-21T14:09:49;6.15;;;4.13;;
77507;SDS011;66618;42.666;23.360;2023-03-21T14:12:17;5.75;;;4.20;;
77507;SDS011;66618;42.666;23.360;2023-03-21T14:15:07;6.32;;;4.28;;
77507;SDS011;66618;42.666;23.360;2023-03-21T14:17:47;6.65;;;3.85;;
77507;SDS011;66618;42.666;23.360;2023-03-21T14:22:45;8.55;;;4.28;;
77507;SDS011;66618;42.666;23.360;2023-03-21T14:25:12;6.53;;;4.30;;
77507;SDS011;66618;42.666;23.360;2023-03-21T14:27:38;6.60;;;4.72;;
77507;SDS011;66618;42.666;23.360;2023-03-21T14:30:09;6.30;;;4.30;;
77507;SDS011;66618;42.666;23.360;2023-03-21T14:32:36;7.95;;;4.53;;
77507;SDS011;66618;42.666;23.360;2023-03-21T14:35:02;7.40;;;4.32;;
77507;SDS011;66618;42.666;23.360;2023-03-21T14:37:32;8.88;;;4.20;;
77507;SDS011;66618;42.666;23.360;2023-03-21T14:40:04;6.35;;;3.88;;
77507;SDS011;66618;42.666;23.360;2023-03-21T14:42:34;5.13;;;3.83;;
77507;SDS011;66618;42.666;23.360;2023-03-21T14:45:05;7.93;;;4.18;;
77507;SDS011;66618;42.666;23.360;2023-03-21T14:47:38;7.35;;;4.10;;
77507;SDS011;66618;42.666;23.360;2023-03-21T14:50:04;6.88;;;4.50;;
77507;SDS011;66618;42.666;23.360;2023-03-21T14:52:32;9.13;;;4.15;;
77507;SDS011;66618;42.666;23.360;2023-03-21T14:54:58;7.75;;;4.55;;
77507;SDS011;66618;42.666;23.360;2023-03-21T14:57:26;8.23;;;4.70;;
77507;SDS011;66618;42.666;23.360;2023-03-21T14:59:55;9.00;;;4.45;;
77507;SDS011;66618;42.666;23.360;2023-03-21T15:02:22;9.77;;;5.35;;
77507;SDS011;66618;42.666;23.360;2023-03-21T15:04:51;6.93;;;4.45;;
77507;SDS011;66618;42.666;23.360;2023-03-21T15:07:26;8.38;;;4.53;;
77507;SDS011;66618;42.666;23.360;2023-03-21T15:09:57;6.20;;;4.28;;
77507;SDS011;66618;42.666;23.360;2023-03-21T15:12:25;7.10;;;4.93;;
77507;SDS011;66618;42.666;23.360;2023-03-21T15:14:50;6.70;;;4.38;;
77507;SDS011;66618;42.666;23.360;2023-03-21T15:17:16;5.45;;;4.20;;
77507;SDS011;66618;42.666;23.360;2023-03-21T15:19:42;8.20;;;4.63;;
77507;SDS011;66618;42.666;23.360;2023-03-21T15:22:09;7.35;;;4.55;;
77507;SDS011;66618;42.666;23.360;2023-03-21T15:24:43;8.43;;;5.00;;
77507;SDS011;66618;42.666;23.360;2023-03-21T15:27:15;10.60;;;4.70;;
77507;SDS011;66618;42.666;23.360;2023-03-21T15:29:42;7.80;;;5.20;;
77507;SDS011;66618;42.666;23.360;2023-03-21T15:32:12;7.93;;;5.18;;
77507;SDS011;66618;42.666;23.360;2023-03-21T15:34:40;6.95;;;5.10;;
77507;SDS011;66618;42.666;23.360;2023-03-21T15:37:06;9.65;;;5.00;;
77507;SDS011;66618;42.666;23.360;2023-03-21T15:39:37;5.95;;;4.90;;
77507;SDS011;66618;42.666;23.360;2023-03-21T15:42:04;7.20;;;4.93;;
77507;SDS011;66618;42.666;23.360;2023-03-21T15:44:32;7.75;;;5.40;;
77507;SDS011;66618;42.666;23.360;2023-03-21T15:46:59;8.82;;;5.32;;
77507;SDS011;66618;42.666;23.360;2023-03-21T15:49:26;8.05;;;5.22;;
77507;SDS011;66618;42.666;23.360;2023-03-21T15:51:55;9.20;;;5.30;;
77507;SDS011;66618;42.666;23.360;2023-03-21T15:56:52;7.45;;;5.53;;
77507;SDS011;66618;42.666;23.360;2023-03-21T15:59:25;7.95;;;5.20;;
77507;SDS011;66618;42.666;23.360;2023-03-21T16:01:52;9.50;;;5.68;;
77507;SDS011;66618;42.666;23.360;2023-03-21T16:04:18;9.68;;;6.50;;
77507;SDS011;66618;42.666;23.360;2023-03-21T16:06:51;10.27;;;6.30;;
77507;SDS011;66618;42.666;23.360;2023-03-21T16:09:22;10.05;;;6.55;;
77507;SDS011;66618;42.666;23.360;2023-03-21T16:11:55;17.65;;;5.75;;
77507;SDS011;66618;42.666;23.360;2023-03-21T16:14:23;12.57;;;6.28;;
77507;SDS011;66618;42.666;23.360;2023-03-21T16:16:51;9.80;;;6.85;;
77507;SDS011;66618;42.666;23.360;2023-03-21T16:19:17;11.32;;;7.60;;
77507;SDS011;66618;42.666;23.360;2023-03-21T16:21:43;11.98;;;7.88;;
77507;SDS011;66618;42.666;23.360;2023-03-21T16:24:10;11.98;;;7.72;;
77507;SDS011;66618;42.666;23.360;2023-03-21T16:26:46;12.05;;;8.45;;
77507;SDS011;66618;42.666;23.360;2023-03-21T16:29:15;12.70;;;8.52;;
77507;SDS011;66618;42.666;23.360;2023-03-21T16:31:42;12.18;;;9.18;;
77507;SDS011;66618;42.666;23.360;2023-03-21T16:34:07;13.20;;;8.18;;
77507;SDS011;66618;42.666;23.360;2023-03-21T16:36:37;16.70;;;9.63;;
77507;SDS011;66618;42.666;23.360;2023-03-21T16:39:14;11.95;;;8.80;;
77507;SDS011;66618;42.666;23.360;2023-03-21T16:41:41;12.57;;;8.80;;
77507;SDS011;66618;42.666;23.360;2023-03-21T16:44:07;13.32;;;8.02;;
77507;SDS011;66618;42.666;23.360;2023-03-21T16:46:33;14.40;;;9.13;;
77507;SDS011;66618;42.666;23.360;2023-03-21T16:48:58;17.83;;;9.63;;
77507;SDS011;66618;42.666;23.360;2023-03-21T16:51:25;24.80;;;12.82;;